CheckWX is a tool to help pilots better visualize weather data.  It is not intended as a substitute for an official pre-flight weather briefing.

19:04:13 UTC

KRDK METAR
Red Oak Municipal Airport
Red Oak, Iowa, USA
Current

9 mins ago

KRDK 201855Z AUTO 16019KT 10SM CLR 18/07 A2976 RMK AO2
Observed
Nov-20 @ 18:55 UTC
Wind
  • 160° at 19 KTS
Visibility
10 SM
Flight Rules
VFR
Cloud Levels
  • Clear skies
Temperature
18°C / 64°F
Dewpoint
C / 45°F
Humidity
49%
Altimeter
29.76" Hg
Pressure
1007.82 hPa
Previous

29 mins ago

KRDK 201835Z AUTO 15019G27KT 10SM CLR 17/07 A2977 RMK AO2
Observed
Nov-20 @ 18:35 UTC
Wind
  • 150° at 19 KTS
  • Gusting to 27 KTS
Visibility
10 SM
Flight Rules
VFR
Cloud Levels
  • Clear skies
Temperature
17°C / 63°F
Dewpoint
C / 45°F
Humidity
52%
Altimeter
29.77" Hg
Pressure
1008.12 hPa
Previous

1 hour ago

KRDK 201755Z AUTO 16015G26KT 10SM CLR 17/07 A2980 RMK AO2
Observed
Nov-20 @ 17:55 UTC
Wind
  • 160° at 15 KTS
  • Gusting to 26 KTS
Visibility
10 SM
Flight Rules
VFR
Cloud Levels
  • Clear skies
Temperature
17°C / 63°F
Dewpoint
C / 45°F
Humidity
52%
Altimeter
29.8" Hg
Pressure
1009.12 hPa